Time;durP1;ratioP1;P1;durP2;ratioP2;P2;SDS_P1;SDS_P2;PMS_P1;PMS_P2;Temp;Humidity;BMP_temperature;BMP_pressure;BME280_temperature;BME280_humidity;BME280_pressure;Samples;Min_cycle;Max_cycle;Signal;HPM_P1;HPM_P2
2022/02/25 00:00:36;;;;;;;8.57;4.20;;;;;;;3.36;75.40;100521.00;5038303;28;20293;-84
2022/02/25 00:03:04;;;;;;;5.50;2.70;;;;;;;3.37;75.29;100514.84;5040683;28;20238;-84
2022/02/25 00:05:33;;;;;;;5.27;3.10;;;;;;;3.38;75.80;100516.56;5030289;28;20207;-83
2022/02/25 00:08:00;;;;;;;6.90;2.70;;;;;;;3.39;75.50;100528.81;5041285;28;20620;-85
2022/02/25 00:10:27;;;;;;;6.73;3.17;;;;;;;3.41;75.10;100524.31;5038892;28;20221;-86
2022/02/25 00:12:54;;;;;;;5.00;2.97;;;;;;;3.41;75.68;100542.75;5039121;28;20232;-86
2022/02/25 00:15:20;;;;;;;10.90;3.50;;;;;;;3.41;75.46;100545.38;5037426;28;20820;-86
2022/02/25 00:17:47;;;;;;;7.17;3.00;;;;;;;3.42;75.03;100548.88;5039476;28;20213;-85
2022/02/25 00:20:13;;;;;;;5.87;2.60;;;;;;;3.42;74.99;100547.09;5036433;28;20654;-86
2022/02/25 00:22:42;;;;;;;7.07;2.73;;;;;;;3.43;75.15;100553.22;5037668;28;20724;-84
2022/02/25 00:25:10;;;;;;;6.93;2.50;;;;;;;3.44;75.37;100561.06;5029302;28;20293;-86
2022/02/25 00:27:38;;;;;;;3.77;1.97;;;;;;;3.46;74.81;100568.91;5031411;28;20252;-84
2022/02/25 00:30:06;;;;;;;6.60;2.20;;;;;;;3.44;74.83;100571.59;5038711;28;20213;-85
2022/02/25 00:32:32;;;;;;;4.17;2.10;;;;;;;3.45;74.60;100581.22;5028526;28;20214;-84
2022/02/25 00:34:59;;;;;;;5.53;2.80;;;;;;;3.44;75.20;100587.41;5039342;28;20214;-85
2022/02/25 00:37:25;;;;;;;7.47;2.47;;;;;;;3.42;75.22;100594.50;5027883;28;20210;-86
2022/02/25 00:39:53;;;;;;;6.40;3.17;;;;;;;3.41;74.86;100597.16;5039102;28;20210;-86
2022/02/25 00:42:20;;;;;;;3.90;2.13;;;;;;;3.42;75.07;100597.13;5027568;28;20215;-83
2022/02/25 00:44:47;;;;;;;4.20;1.97;;;;;;;3.41;74.53;100605.94;5027922;28;20300;-83
2022/02/25 00:47:14;;;;;;;7.20;3.00;;;;;;;3.40;75.05;100604.22;5033781;28;20238;-85
2022/02/25 00:49:40;;;;;;;2.57;1.83;;;;;;;3.42;74.65;100598.91;5023696;28;20580;-85
2022/02/25 00:52:07;;;;;;;4.40;2.40;;;;;;;3.41;75.12;100605.06;5033872;28;20198;-86
2022/02/25 00:54:34;;;;;;;5.63;2.20;;;;;;;3.39;74.78;100602.53;5014707;28;20231;-84
2022/02/25 00:57:03;;;;;;;7.00;2.53;;;;;;;3.39;75.00;100597.25;5016978;28;20215;-83
2022/02/25 00:59:29;;;;;;;5.33;2.50;;;;;;;3.33;75.03;100605.34;5025043;28;20761;-83
2022/02/25 01:01:56;;;;;;;2.70;1.50;;;;;;;3.33;74.45;100609.75;5029418;28;20210;-82
2022/02/25 01:04:22;;;;;;;3.10;1.60;;;;;;;3.33;74.56;100620.28;5021751;28;20710;-84
2022/02/25 01:06:49;;;;;;;3.10;1.97;;;;;;;3.30;74.16;100621.25;5031441;28;20222;-84
2022/02/25 01:09:16;;;;;;;6.27;2.43;;;;;;;3.29;74.27;100627.41;5034722;28;20364;-84
2022/02/25 01:11:43;;;;;;;3.60;2.00;;;;;;;3.25;74.26;100622.31;5034629;28;20621;-84
2022/02/25 01:14:11;;;;;;;4.70;2.07;;;;;;;3.23;74.14;100630.25;5035936;28;20587;-86
2022/02/25 01:16:37;;;;;;;3.60;2.27;;;;;;;3.22;74.23;100625.06;5030681;28;20212;-87
2022/02/25 01:19:04;;;;;;;3.27;1.47;;;;;;;3.19;74.51;100631.28;5020664;28;20208;-85
2022/02/25 01:21:30;;;;;;;3.23;1.60;;;;;;;3.19;74.56;100636.56;5028004;28;20704;-85
2022/02/25 01:23:57;;;;;;;6.13;1.80;;;;;;;3.17;75.00;100641.00;5024586;28;20236;-86
2022/02/25 01:26:24;;;;;;;3.43;2.20;;;;;;;3.17;74.43;100645.41;5026344;28;20213;-85
2022/02/25 01:28:50;;;;;;;4.63;2.13;;;;;;;3.16;74.41;100649.81;5033151;28;20291;-85
2022/02/25 01:31:19;;;;;;;6.87;2.57;;;;;;;3.12;74.66;100653.44;5030181;28;20210;-87
2022/02/25 01:33:46;;;;;;;5.50;2.70;;;;;;;3.14;74.84;100655.13;5031824;28;20276;-87
2022/02/25 01:36:13;;;;;;;4.23;3.27;;;;;;;3.14;75.57;100657.75;5032826;28;20213;-87
2022/02/25 01:38:39;;;;;;;5.07;3.10;;;;;;;3.14;75.48;100656.88;5032594;28;20210;-86
2022/02/25 01:41:06;;;;;;;4.03;3.33;;;;;;;3.20;75.23;100663.72;5032635;28;20210;-84
2022/02/25 01:43:32;;;;;;;6.27;3.47;;;;;;;3.21;75.27;100668.94;5023530;28;20696;-84
2022/02/25 01:45:59;;;;;;;4.53;3.00;;;;;;;3.22;75.68;100670.66;5023656;28;20225;-83
2022/02/25 01:48:27;;;;;;;5.63;3.53;;;;;;;3.22;75.77;100668.03;5029555;28;20232;-84
2022/02/25 01:50:54;;;;;;;5.60;3.30;;;;;;;3.24;76.13;100671.44;5034809;28;20202;-83
2022/02/25 01:53:20;;;;;;;6.17;2.83;;;;;;;3.24;75.55;100681.13;5031069;28;20234;-85
2022/02/25 01:55:47;;;;;;;5.83;3.13;;;;;;;3.23;75.60;100684.66;5028654;28;20211;-84
2022/02/25 01:58:15;;;;;;;3.90;3.20;;;;;;;3.23;74.94;100685.50;5027361;28;20199;-83
2022/02/25 02:00:43;;;;;;;5.50;2.97;;;;;;;3.23;75.22;100693.41;5033544;28;20210;-84
2022/02/25 02:03:09;;;;;;;3.33;2.50;;;;;;;3.22;75.71;100701.38;5031969;28;20229;-85
2022/02/25 02:05:38;;;;;;;6.30;2.67;;;;;;;3.19;74.95;100697.09;5032227;28;20215;-83
2022/02/25 02:08:05;;;;;;;3.80;2.73;;;;;;;3.20;75.50;100705.84;5032873;28;20226;-84
2022/02/25 02:10:32;;;;;;;4.03;2.60;;;;;;;3.16;75.59;100701.56;5028606;28;20218;-85
2022/02/25 02:12:58;;;;;;;6.03;2.57;;;;;;;3.17;75.80;100698.91;5022567;28;20237;-86
2022/02/25 02:15:25;;;;;;;3.90;2.23;;;;;;;3.14;75.55;100696.34;5029234;28;20210;-85
2022/02/25 02:17:53;;;;;;;6.47;2.83;;;;;;;3.13;75.42;100707.78;5021709;28;20210;-85
2022/02/25 02:20:19;;;;;;;3.67;2.23;;;;;;;3.07;75.25;100698.31;5032356;28;20214;-83
2022/02/25 02:22:48;;;;;;;3.40;2.40;;;;;;;3.03;75.27;100698.47;5032268;28;20205;-85
2022/02/25 02:25:15;;;;;;;4.00;2.30;;;;;;;3.01;74.51;100698.53;5025336;28;20222;-85
2022/02/25 02:30:26;;;;;;;3.43;2.03;;;;;;;3.00;75.00;100703.84;5031986;28;20725;-83
2022/02/25 02:32:52;;;;;;;8.77;2.77;;;;;;;2.95;74.91;100692.59;5033503;28;20613;-84
2022/02/25 02:35:19;;;;;;;5.13;2.40;;;;;;;2.94;74.72;100702.25;5036072;28;20212;-84
2022/02/25 02:37:48;;;;;;;5.53;2.43;;;;;;;2.92;74.86;100711.94;5027159;28;20207;-85
2022/02/25 02:40:14;;;;;;;6.23;3.07;;;;;;;2.88;74.67;100717.34;5033342;28;20241;-85
2022/02/25 02:42:41;;;;;;;6.27;3.00;;;;;;;2.87;75.31;100707.72;5034357;28;20214;-85
2022/02/25 02:45:09;;;;;;;6.40;3.27;;;;;;;2.84;75.40;100710.47;5023154;28;20217;-84
2022/02/25 02:47:35;;;;;;;6.27;3.50;;;;;;;2.80;75.41;100720.22;5025349;28;20285;-84
2022/02/25 02:50:02;;;;;;;5.67;3.80;;;;;;;2.76;74.96;100708.06;5035344;28;21444;-84
2022/02/25 02:52:28;;;;;;;4.80;3.20;;;;;;;2.76;74.66;100732.59;5037197;28;20218;-84
2022/02/25 02:54:56;;;;;;;3.90;3.50;;;;;;;2.72;74.87;100728.34;5025193;28;20237;-84
2022/02/25 02:57:23;;;;;;;4.67;3.57;;;;;;;2.69;75.49;100728.41;5035501;28;20672;-84
2022/02/25 02:59:50;;;;;;;8.33;3.73;;;;;;;2.70;75.33;100737.19;5036810;28;20210;-84
2022/02/25 03:02:17;;;;;;;5.23;3.90;;;;;;;2.67;75.07;100738.16;5037069;28;20230;-85
2022/02/25 03:04:44;;;;;;;5.30;3.97;;;;;;;2.62;76.04;100729.53;5022853;28;20935;-84
2022/02/25 03:07:11;;;;;;;5.03;3.70;;;;;;;2.63;75.52;100733.88;5023249;28;20234;-83
2022/02/25 03:09:38;;;;;;;6.10;3.80;;;;;;;2.63;75.38;100738.28;5033223;28;20216;-85
2022/02/25 03:12:07;;;;;;;4.57;3.70;;;;;;;2.61;75.13;100729.56;5023510;28;20210;-84
2022/02/25 03:14:34;;;;;;;7.70;4.03;;;;;;;2.60;75.45;100735.72;5035421;28;20261;-84
2022/02/25 03:17:01;;;;;;;6.37;4.20;;;;;;;2.58;75.52;100745.44;5036482;28;20206;-83
2022/02/25 03:19:27;;;;;;;5.40;4.20;;;;;;;2.56;75.46;100737.59;5027039;28;20211;-84
2022/02/25 03:21:54;;;;;;;5.03;4.20;;;;;;;2.56;76.11;100736.72;5027082;28;20213;-83
2022/02/25 03:24:20;;;;;;;7.57;4.20;;;;;;;2.53;75.87;100737.66;5033801;28;20659;-84
2022/02/25 03:26:47;;;;;;;6.37;3.90;;;;;;;2.53;75.74;100731.56;5036306;28;20759;-84
2022/02/25 03:29:15;;;;;;;6.37;3.60;;;;;;;2.54;75.24;100735.91;5035310;28;20214;-84
2022/02/25 03:31:41;;;;;;;6.60;4.40;;;;;;;2.53;75.94;100742.94;5051522;28;20308;-83
2022/02/25 03:34:08;;;;;;;7.00;3.90;;;;;;;2.53;75.25;100748.19;5035810;28;20222;-84
2022/02/25 03:36:35;;;;;;;7.23;4.47;;;;;;;2.56;75.41;100748.09;5037325;28;20212;-83
2022/02/25 03:39:02;;;;;;;8.83;4.20;;;;;;;2.55;75.56;100749.00;5037179;28;20199;-83
2022/02/25 03:41:31;;;;;;;8.17;4.17;;;;;;;2.56;75.88;100755.13;5031996;28;20210;-84
2022/02/25 03:43:58;;;;;;;4.73;3.33;;;;;;;2.58;75.13;100769.09;5034393;28;20261;-84
2022/02/25 03:46:26;;;;;;;10.10;4.00;;;;;;;2.60;75.15;100765.53;5035844;28;20213;-84
2022/02/25 03:48:52;;;;;;;5.63;4.17;;;;;;;2.59;75.83;100763.78;5035887;28;20684;-84
2022/02/25 03:51:21;;;;;;;5.60;4.17;;;;;;;2.60;75.83;100755.00;5048468;28;20703;-85
2022/02/25 03:53:48;;;;;;;4.30;3.50;;;;;;;2.60;75.57;100770.78;5035742;28;20222;-84
2022/02/25 03:56:15;;;;;;;5.27;3.67;;;;;;;2.63;75.50;100775.09;5033879;28;20214;-84
2022/02/25 03:58:41;;;;;;;7.67;4.20;;;;;;;2.62;74.89;100768.97;5035397;28;20280;-84
2022/02/25 04:01:08;;;;;;;4.87;3.60;;;;;;;2.64;74.91;100782.06;5040797;28;20321;-83
2022/02/25 04:03:36;;;;;;;5.97;3.57;;;;;;;2.64;74.91;100775.06;5021223;28;20233;-82
2022/02/25 04:06:03;;;;;;;7.53;3.83;;;;;;;2.66;75.00;100781.13;5036118;28;20673;-83
2022/02/25 04:08:29;;;;;;;8.43;3.50;;;;;;;2.66;74.56;100786.38;5021704;28;20240;-83
2022/02/25 04:10:56;;;;;;;6.97;3.90;;;;;;;2.67;75.34;100787.25;5035691;28;20686;-83
2022/02/25 04:13:22;;;;;;;8.23;3.80;;;;;;;2.66;74.77;100781.13;5035077;28;20317;-83
2022/02/25 04:15:49;;;;;;;6.30;3.67;;;;;;;2.68;75.22;100783.72;5031704;28;20215;-83
2022/02/25 04:18:15;;;;;;;6.23;3.70;;;;;;;2.68;74.45;100778.47;5024302;28;20225;-84
2022/02/25 04:20:44;;;;;;;5.90;3.70;;;;;;;2.70;74.83;100777.47;5034225;28;20210;-84
2022/02/25 04:23:10;;;;;;;4.60;3.80;;;;;;;2.73;75.35;100787.91;5016542;28;20701;-84
2022/02/25 04:25:37;;;;;;;8.63;3.67;;;;;;;2.72;74.65;100775.66;5025260;28;20389;-84
2022/02/25 04:28:04;;;;;;;5.13;3.10;;;;;;;2.73;75.10;100777.41;5033200;28;20234;-84
2022/02/25 04:30:32;;;;;;;6.90;3.80;;;;;;;2.74;75.13;100768.59;5033241;28;20266;-84
2022/02/25 04:32:59;;;;;;;5.27;3.80;;;;;;;2.75;74.35;100780.84;5032160;28;20703;-83
2022/02/25 04:35:25;;;;;;;5.40;3.87;;;;;;;2.76;75.31;100776.44;5020894;28;20293;-84
2022/02/25 04:37:53;;;;;;;6.00;3.80;;;;;;;2.76;75.26;100776.44;5033949;28;20289;-84
2022/02/25 04:40:20;;;;;;;5.90;3.60;;;;;;;2.77;75.24;100768.53;5031501;28;20206;-84
2022/02/25 04:42:47;;;;;;;10.00;3.73;;;;;;;2.78;75.39;100775.50;5029742;28;20591;-83
2022/02/25 04:45:14;;;;;;;5.97;3.30;;;;;;;2.78;74.39;100775.50;5029922;28;20210;-82
2022/02/25 04:47:41;;;;;;;3.37;2.43;;;;;;;2.80;75.17;100770.19;5028681;28;20728;-83
2022/02/25 04:50:08;;;;;;;7.27;3.43;;;;;;;2.76;74.93;100777.31;5033808;28;20212;-83
2022/02/25 04:52:35;;;;;;;3.67;2.97;;;;;;;2.79;74.87;100769.34;5031953;28;20206;-83
2022/02/25 04:55:04;;;;;;;6.37;2.70;;;;;;;2.81;74.94;100773.69;5031176;28;20214;-82
2022/02/25 04:57:31;;;;;;;4.70;3.23;;;;;;;2.83;74.43;100764.00;5034321;28;20206;-83
2022/02/25 04:59:57;;;;;;;5.97;3.27;;;;;;;2.84;74.07;100763.94;5034849;28;20210;-83
2022/02/25 05:02:24;;;;;;;8.07;2.97;;;;;;;2.86;74.08;100764.78;5025708;28;20210;-83
2022/02/25 05:04:50;;;;;;;6.03;2.43;;;;;;;2.88;74.20;100768.19;5031994;28;20222;-82
2022/02/25 05:07:17;;;;;;;4.43;3.00;;;;;;;2.90;73.83;100770.78;5028703;28;20587;-84
2022/02/25 05:09:43;;;;;;;6.13;3.00;;;;;;;2.87;74.26;100776.97;5028790;28;20380;-83
2022/02/25 05:12:11;;;;;;;6.73;2.93;;;;;;;2.88;73.68;100773.44;5024681;28;20217;-83
2022/02/25 05:20:23;;;;;;;4.27;2.60;;;;;;;2.92;73.18;100771.59;5031490;28;20209;-83
2022/02/25 05:22:50;;;;;;;7.43;2.60;;;;;;;2.90;73.66;100773.41;5032002;28;20213;-84
2022/02/25 05:25:16;;;;;;;5.27;2.50;;;;;;;2.90;73.83;100771.63;5030740;28;20214;-84
2022/02/25 05:27:44;;;;;;;6.90;3.03;;;;;;;2.89;73.85;100771.69;5024694;28;20230;-84
2022/02/25 05:30:12;;;;;;;6.27;2.50;;;;;;;2.88;73.31;100776.06;5029795;28;20228;-83
2022/02/25 05:32:38;;;;;;;6.40;2.60;;;;;;;2.87;73.57;100778.75;5032689;28;20217;-84
2022/02/25 05:35:08;;;;;;;7.40;2.43;;;;;;;2.88;73.11;100780.47;5024591;28;20206;-84
2022/02/25 05:37:35;;;;;;;6.10;2.47;;;;;;;2.86;73.05;100791.06;5020120;28;20217;-84
2022/02/25 05:40:05;;;;;;;3.43;2.30;;;;;;;2.87;73.38;100792.75;5027083;28;20215;-83
2022/02/25 05:42:32;;;;;;;4.77;2.20;;;;;;;2.86;73.20;100783.19;5034238;28;20675;-84
2022/02/25 05:45:02;;;;;;;5.57;2.10;;;;;;;2.88;73.41;100783.09;5032527;28;20244;-83
2022/02/25 05:47:29;;;;;;;6.67;2.50;;;;;;;2.88;73.03;100798.88;5035033;28;20209;-84
2022/02/25 05:49:56;;;;;;;8.10;2.50;;;;;;;2.90;73.18;100784.78;5033405;28;20206;-84
2022/02/25 05:52:22;;;;;;;5.30;2.73;;;;;;;2.89;73.48;100790.97;5029061;28;20206;-85
2022/02/25 05:54:49;;;;;;;7.87;2.97;;;;;;;2.89;72.62;100788.31;5035937;28;20222;-84
2022/02/25 05:57:16;;;;;;;5.07;2.30;;;;;;;2.89;73.39;100782.19;5038968;28;20549;-83
2022/02/25 05:59:44;;;;;;;5.00;2.23;;;;;;;2.89;73.63;100790.09;5029600;28;20203;-85
2022/02/25 06:02:12;;;;;;;5.07;2.03;;;;;;;2.86;73.72;100780.56;5033871;28;20206;-85
2022/02/25 06:04:39;;;;;;;3.80;2.00;;;;;;;2.88;73.68;100791.00;5028863;28;20225;-85
2022/02/25 06:07:06;;;;;;;7.27;2.10;;;;;;;2.85;73.62;100785.84;5030574;28;20198;-84
2022/02/25 06:09:32;;;;;;;5.23;2.00;;;;;;;2.86;73.49;100785.81;5034911;28;20236;-84
2022/02/25 06:11:59;;;;;;;8.53;2.23;;;;;;;2.86;73.03;100791.06;5032472;28;20207;-84
2022/02/25 06:14:26;;;;;;;5.27;2.37;;;;;;;2.86;73.10;100798.97;5037841;28;20237;-85
2022/02/25 06:16:52;;;;;;;8.43;2.60;;;;;;;2.87;73.78;100799.78;5033125;28;20257;-85
2022/02/25 06:19:20;;;;;;;6.63;2.20;;;;;;;2.86;73.48;100806.00;5045190;28;20314;-85
2022/02/25 06:21:48;;;;;;;8.07;2.40;;;;;;;2.85;73.50;100802.50;5034099;28;20592;-84
2022/02/25 06:24:15;;;;;;;9.63;2.30;;;;;;;2.85;73.63;100809.53;5024619;28;20702;-84
2022/02/25 06:26:42;;;;;;;6.97;1.80;;;;;;;2.88;73.90;100814.66;5038637;28;20293;-84
2022/02/25 06:29:09;;;;;;;5.67;2.30;;;;;;;2.87;73.96;100813.81;5028306;28;20264;-85
2022/02/25 06:31:36;;;;;;;9.07;2.80;;;;;;;2.86;73.75;100814.75;5037360;28;20206;-85
2022/02/25 06:34:04;;;;;;;5.07;1.27;;;;;;;2.86;73.61;100809.50;5027185;28;20226;-84
2022/02/25 06:36:31;;;;;;;4.63;1.53;;;;;;;2.87;74.13;100816.44;5035401;28;20210;-85
2022/02/25 06:38:58;;;;;;;5.57;1.53;;;;;;;2.86;74.24;100814.75;5034913;28;20212;-83
2022/02/25 06:41:25;;;;;;;7.63;1.80;;;;;;;2.88;74.14;100815.53;5034704;28;20206;-85
2022/02/25 06:43:51;;;;;;;5.67;1.83;;;;;;;2.90;74.01;100820.75;5028118;28;20219;-85
2022/02/25 06:46:18;;;;;;;10.40;2.13;;;;;;;2.89;74.13;100832.19;5028582;28;20581;-85
2022/02/25 06:48:45;;;;;;;7.23;2.03;;;;;;;2.91;73.99;100827.75;5035215;28;20229;-86
2022/02/25 06:51:11;;;;;;;8.80;2.70;;;;;;;2.92;73.64;100826.84;5035497;28;20653;-84
2022/02/25 06:53:41;;;;;;;6.23;2.03;;;;;;;2.91;73.68;100833.00;5022798;28;20226;-85
2022/02/25 06:56:08;;;;;;;6.43;1.73;;;;;;;2.91;73.40;100838.25;5036105;28;20270;-84
2022/02/25 06:58:35;;;;;;;5.17;1.67;;;;;;;2.92;73.91;100832.09;5035681;28;20581;-84
2022/02/25 07:01:02;;;;;;;5.43;2.00;;;;;;;2.94;73.86;100838.19;5034598;28;20578;-85
2022/02/25 07:03:29;;;;;;;7.63;2.30;;;;;;;2.91;73.93;100831.22;5034751;28;20592;-84
2022/02/25 07:05:57;;;;;;;8.40;2.80;;;;;;;2.93;73.77;100839.94;5024187;28;20267;-85
2022/02/25 07:08:23;;;;;;;6.87;2.43;;;;;;;2.96;73.83;100847.75;5030754;28;20226;-85
2022/02/25 07:10:52;;;;;;;5.83;2.10;;;;;;;2.97;73.89;100846.00;5016221;28;20225;-85
2022/02/25 07:13:19;;;;;;;8.57;1.97;;;;;;;3.00;73.40;100851.16;5015842;28;20326;-85
2022/02/25 07:15:46;;;;;;;4.53;1.80;;;;;;;2.99;74.14;100837.16;5035202;28;20261;-85
2022/02/25 07:18:15;;;;;;;8.17;2.13;;;;;;;3.01;73.45;100842.38;5035918;28;20210;-85
2022/02/25 07:20:42;;;;;;;6.43;1.63;;;;;;;2.99;73.79;100846.81;5038986;28;20289;-84
2022/02/25 07:23:09;;;;;;;6.80;2.10;;;;;;;3.03;74.05;100835.28;5019343;28;20289;-84
2022/02/25 07:25:35;;;;;;;7.10;2.20;;;;;;;3.04;73.73;100847.56;5033110;28;20673;-85
2022/02/25 07:28:04;;;;;;;9.50;2.17;;;;;;;3.06;72.83;100854.47;5037736;28;20832;-84
2022/02/25 07:30:30;;;;;;;7.30;1.70;;;;;;;3.10;73.72;100860.50;5045069;28;20213;-84
2022/02/25 07:32:57;;;;;;;8.90;1.97;;;;;;;3.11;72.78;100854.34;5040076;28;20275;-85
2022/02/25 07:35:24;;;;;;;6.07;2.07;;;;;;;3.13;73.32;100856.03;5024240;28;20214;-84
2022/02/25 07:37:51;;;;;;;7.43;1.70;;;;;;;3.17;72.67;100855.94;5037928;28;20220;-83
2022/02/25 07:40:17;;;;;;;5.57;1.70;;;;;;;3.21;72.67;100847.91;5033548;28;20210;-84
2022/02/25 07:42:45;;;;;;;13.47;2.00;;;;;;;3.24;73.03;100852.19;5020687;28;20225;-85
2022/02/25 07:45:13;;;;;;;5.10;1.90;;;;;;;3.28;72.47;100862.59;5033049;28;20239;-85
2022/02/25 07:47:40;;;;;;;7.20;1.80;;;;;;;3.33;71.90;100871.22;5024595;28;20214;-84
2022/02/25 07:50:07;;;;;;;5.83;1.80;;;;;;;3.38;72.17;100866.69;5029936;28;20240;-86
2022/02/25 07:52:33;;;;;;;6.20;1.43;;;;;;;3.41;71.78;100877.09;5030280;28;20210;-85
2022/02/25 07:55:01;;;;;;;5.60;1.67;;;;;;;3.45;72.13;100872.59;5030198;28;20226;-85
2022/02/25 07:57:28;;;;;;;6.87;2.30;;;;;;;3.49;72.41;100869.84;5037598;28;20641;-84
2022/02/25 07:59:54;;;;;;;12.97;1.90;;;;;;;3.53;71.57;100881.16;5037330;28;20232;-83
2022/02/25 08:02:22;;;;;;;5.17;1.77;;;;;;;3.57;71.65;100872.25;5037715;28;20216;-85
2022/02/25 08:04:49;;;;;;;7.20;2.03;;;;;;;3.57;71.02;100887.19;5035964;28;20574;-85
2022/02/25 08:07:16;;;;;;;6.23;1.70;;;;;;;3.63;71.50;100877.31;5037311;28;20214;-85
2022/02/25 08:09:42;;;;;;;6.20;1.80;;;;;;;3.67;70.78;100867.53;5025732;28;20656;-84
2022/02/25 08:12:09;;;;;;;6.23;1.90;;;;;;;3.68;71.25;100870.13;5035763;28;20685;-84
2022/02/25 08:14:38;;;;;;;8.77;2.20;;;;;;;3.65;70.30;100870.22;5027199;28;20241;-83
2022/02/25 08:17:04;;;;;;;6.00;1.33;;;;;;;3.67;71.10;100872.81;5034427;28;20580;-84
2022/02/25 08:19:33;;;;;;;6.23;1.67;;;;;;;3.73;71.68;100862.97;5037145;28;20216;-84
2022/02/25 08:22:00;;;;;;;6.87;2.40;;;;;;;3.85;71.00;100877.50;5027397;28;20211;-84
2022/02/25 08:24:26;;;;;;;5.50;1.53;;;;;;;3.93;70.82;100880.75;5033033;28;20284;-84
2022/02/25 08:26:53;;;;;;;5.80;1.70;;;;;;;4.06;71.06;100889.97;5024992;28;20214;-86
2022/02/25 08:29:19;;;;;;;7.50;1.80;;;;;;;4.12;69.97;100895.03;5026942;28;20264;-84
2022/02/25 08:31:47;;;;;;;8.67;1.97;;;;;;;4.22;70.41;100905.28;5036601;28;20690;-83
2022/02/25 08:34:13;;;;;;;9.30;2.00;;;;;;;4.29;70.00;100904.19;5027387;28;20235;-84
2022/02/25 08:36:41;;;;;;;5.87;1.80;;;;;;;4.32;69.73;100890.88;5032457;28;20274;-82
2022/02/25 08:39:08;;;;;;;9.30;2.47;;;;;;;4.33;69.00;100906.66;5020051;28;20302;-83
2022/02/25 08:41:34;;;;;;;4.27;1.83;;;;;;;4.31;69.18;100905.81;5021780;28;20214;-82
2022/02/25 08:44:01;;;;;;;6.27;2.23;;;;;;;4.31;68.72;100912.88;5022450;28;20309;-85
2022/02/25 08:46:29;;;;;;;8.00;1.73;;;;;;;4.33;68.71;100908.41;5021572;28;20258;-84
2022/02/25 08:48:58;;;;;;;6.43;1.70;;;;;;;4.33;68.64;100908.41;5036161;28;20325;-84
2022/02/25 08:51:24;;;;;;;7.33;2.33;;;;;;;4.34;69.19;100910.16;5028463;28;20214;-84
2022/02/25 08:53:52;;;;;;;8.60;2.30;;;;;;;4.40;68.70;100909.94;5030725;28;20313;-83
2022/02/25 08:56:19;;;;;;;7.37;2.07;;;;;;;4.43;68.47;100891.38;5030433;28;20215;-83
2022/02/25 08:58:45;;;;;;;11.70;3.43;;;;;;;4.49;68.92;100896.44;5027945;28;20219;-82
2022/02/25 09:01:12;;;;;;;6.80;2.23;;;;;;;4.52;68.61;100907.75;5034496;28;20214;-81
2022/02/25 09:03:40;;;;;;;4.23;1.80;;;;;;;4.61;69.09;100919.78;5038284;28;20233;-84
2022/02/25 09:06:07;;;;;;;7.43;2.70;;;;;;;4.69;68.40;100917.72;5036836;28;20261;-82
2022/02/25 09:08:33;;;;;;;8.77;1.90;;;;;;;4.63;67.74;100925.00;5017997;28;20207;-83
2022/02/25 09:11:02;;;;;;;11.10;2.37;;;;;;;4.60;68.01;100912.78;5030536;28;20206;-83
2022/02/25 09:13:29;;;;;;;13.67;2.40;;;;;;;4.60;68.43;100920.69;5022791;28;20236;-84
2022/02/25 09:15:56;;;;;;;9.37;2.37;;;;;;;4.60;68.22;100912.78;5037945;28;20218;-82
2022/02/25 09:18:23;;;;;;;9.60;2.43;;;;;;;4.61;68.05;100911.00;5019649;28;20612;-83
2022/02/25 09:20:51;;;;;;;8.27;2.57;;;;;;;4.66;68.46;100909.91;5033825;28;20202;-83
2022/02/25 09:23:18;;;;;;;8.17;1.67;;;;;;;4.70;68.15;100911.53;5038964;28;20226;-82
2022/02/25 09:25:45;;;;;;;7.93;1.90;;;;;;;4.78;68.38;100903.34;5040257;28;20273;-82
2022/02/25 09:28:14;;;;;;;7.47;2.37;;;;;;;4.81;67.30;100890.91;5022068;28;20256;-82
2022/02/25 09:30:40;;;;;;;13.03;2.67;;;;;;;4.98;68.22;100884.16;5049449;28;20308;-82
2022/02/25 09:33:07;;;;;;;8.50;2.57;;;;;;;5.09;68.04;100882.84;5039339;28;20222;-82
2022/02/25 09:35:33;;;;;;;6.70;2.20;;;;;;;5.23;67.55;100877.03;5028221;28;20583;-84
2022/02/25 09:38:00;;;;;;;6.57;2.20;;;;;;;5.36;67.05;100888.03;5034564;28;20202;-82
2022/02/25 09:40:27;;;;;;;10.50;2.77;;;;;;;5.41;66.60;100891.31;5039205;28;20680;-82
2022/02/25 09:42:54;;;;;;;6.90;2.20;;;;;;;5.44;66.47;100901.78;5037986;28;20216;-83
2022/02/25 09:45:22;;;;;;;11.17;2.37;;;;;;;5.40;65.73;100886.97;5039184;28;20305;-83
2022/02/25 09:47:49;;;;;;;11.60;3.30;;;;;;;5.34;65.66;100897.78;5026270;28;20229;-82
2022/02/25 09:50:17;;;;;;;8.03;2.50;;;;;;;5.34;65.78;100898.63;5032439;28;20713;-82
2022/02/25 09:52:45;;;;;;;9.20;2.13;;;;;;;5.33;65.84;100903.97;5030594;28;20269;-83
2022/02/25 09:55:21;;;;;;;8.27;2.10;;;;;;;5.29;65.95;100908.50;5024227;28;20221;-83
2022/02/25 09:57:48;;;;;;;6.87;1.80;;;;;;;5.20;65.87;100914.97;5037001;28;20293;-85
2022/02/25 10:00:15;;;;;;;11.23;2.60;;;;;;;5.14;66.16;100909.06;5022764;28;20293;-83
2022/02/25 10:02:46;;;;;;;11.53;2.57;;;;;;;5.11;66.39;100909.19;5036660;28;20210;-82
2022/02/25 10:05:15;;;;;;;7.70;2.00;;;;;;;5.11;66.45;100925.03;5028180;28;20203;-84
2022/02/25 10:07:42;;;;;;;12.80;2.80;;;;;;;5.12;67.50;100921.47;5031577;28;20213;-84
2022/02/25 10:10:10;;;;;;;9.30;2.47;;;;;;;5.07;67.60;100926.91;5020183;28;20241;-83
2022/02/25 10:12:39;;;;;;;7.43;1.83;;;;;;;5.08;68.00;100933.91;5029568;28;20232;-83
2022/02/25 10:15:07;;;;;;;13.53;5.47;;;;;;;5.06;68.49;100950.72;5020166;28;20210;-84
2022/02/25 10:17:35;;;;;;;8.03;3.57;;;;;;;5.01;69.61;100947.41;5028923;28;20720;-85
2022/02/25 10:20:07;;;;;;;9.63;3.10;;;;;;;4.98;69.77;100961.56;5031807;28;20710;-83
2022/02/25 10:22:35;;;;;;;13.47;6.60;;;;;;;4.86;71.21;100944.38;5038126;28;20237;-84
2022/02/25 10:25:04;;;;;;;11.33;4.17;;;;;;;4.81;71.24;100951.59;5025835;28;20234;-84
2022/02/25 10:27:33;;;;;;;13.67;7.20;;;;;;;4.71;71.72;100966.00;5036230;28;20732;-83
2022/02/25 10:30:07;;;;;;;8.97;2.93;;;;;;;4.56;73.34;100958.63;5037450;28;20230;-84
2022/02/25 10:32:36;;;;;;;10.70;4.57;;;;;;;4.49;73.39;100972.91;5027394;28;20205;-84
2022/02/25 10:35:23;;;;;;;8.03;3.30;;;;;;;4.45;73.94;100979.22;5020224;28;20329;-82
2022/02/25 10:37:54;;;;;;;8.43;3.63;;;;;;;4.39;74.50;100977.66;5032109;28;20669;-83
2022/02/25 10:40:21;;;;;;;7.23;3.10;;;;;;;4.39;74.11;100979.41;5019939;28;20207;-82
2022/02/25 10:42:47;;;;;;;8.33;3.00;;;;;;;4.38;74.59;100982.97;5019327;28;20287;-84
2022/02/25 10:45:27;;;;;;;9.53;3.00;;;;;;;4.37;74.38;100976.84;5023463;28;20214;-84
2022/02/25 10:47:58;;;;;;;13.27;4.37;;;;;;;4.36;75.30;100997.97;5038386;28;20209;-86
2022/02/25 10:50:27;;;;;;;11.97;4.30;;;;;;;4.36;75.17;100987.44;5019513;28;20215;-83
2022/02/25 10:52:55;;;;;;;8.20;4.13;;;;;;;4.35;75.34;100986.56;5019867;28;20199;-83
2022/02/25 10:55:23;;;;;;;6.33;3.60;;;;;;;4.37;75.37;100999.69;5031090;28;20858;-85
2022/02/25 10:57:52;;;;;;;9.10;4.23;;;;;;;4.33;75.62;101001.56;5039217;28;20620;-84
2022/02/25 11:00:20;;;;;;;5.47;3.60;;;;;;;4.33;75.71;101006.84;5028178;28;20216;-84
2022/02/25 11:02:48;;;;;;;8.73;4.20;;;;;;;4.36;76.00;101011.16;5042135;28;20262;-84
2022/02/25 11:05:18;;;;;;;11.63;4.93;;;;;;;4.34;75.68;100997.16;5027706;28;20293;-84
2022/02/25 11:07:49;;;;;;;8.77;4.70;;;;;;;4.38;75.66;101001.44;5042620;28;20237;-84
2022/02/25 11:10:18;;;;;;;7.00;3.50;;;;;;;4.44;75.42;100990.69;5041229;28;20230;-85
2022/02/25 11:12:47;;;;;;;10.70;4.10;;;;;;;4.43;75.62;100997.75;5042389;28;20214;-84
2022/02/25 11:15:17;;;;;;;5.97;4.07;;;;;;;4.47;75.69;100993.22;5041417;28;20210;-84
2022/02/25 11:17:45;;;;;;;5.83;3.97;;;;;;;4.49;75.31;100988.75;5041989;28;20229;-84
2022/02/25 11:20:13;;;;;;;7.37;3.57;;;;;;;4.50;75.36;100996.59;5036542;28;20254;-84
2022/02/25 11:22:41;;;;;;;6.20;3.87;;;;;;;4.57;75.61;100994.63;5027192;28;20573;-82
2022/02/25 11:25:16;;;;;;;11.63;4.23;;;;;;;4.61;75.47;101013.88;5036716;28;20213;-84
2022/02/25 11:27:44;;;;;;;6.93;4.40;;;;;;;4.64;75.19;101003.22;5033026;28;20242;-84
2022/02/25 11:30:14;;;;;;;6.60;4.07;;;;;;;4.63;74.74;100998.84;5021928;28;20219;-84
2022/02/25 11:32:50;;;;;;;5.00;3.77;;;;;;;4.69;74.71;101003.91;5034071;28;20203;-84
2022/02/25 11:35:19;;;;;;;6.50;3.87;;;;;;;4.73;74.77;100992.34;5041589;28;20222;-82
2022/02/25 11:37:48;;;;;;;7.93;4.37;;;;;;;4.79;75.04;101000.06;5036287;28;20218;-83
2022/02/25 11:40:37;;;;;;;8.33;3.97;;;;;;;4.79;74.56;101005.34;5039543;28;20309;-82